createdAt,value
2018-06-11T00:02:08.003Z,14.10
2018-06-11T00:04:37.878Z,15.77
2018-06-11T00:07:07.929Z,13.67
2018-06-11T00:09:37.658Z,12.73
2018-06-11T00:12:07.310Z,13.43
2018-06-11T00:14:37.096Z,17.90
2018-06-11T00:17:06.826Z,17.53
2018-06-11T00:19:36.736Z,13.67
2018-06-11T00:22:06.418Z,15.23
2018-06-11T00:24:36.143Z,14.60
2018-06-11T00:27:05.842Z,15.33
2018-06-11T00:29:35.735Z,14.07
2018-06-11T00:32:05.427Z,15.50
2018-06-11T00:34:35.233Z,13.67
2018-06-11T00:37:05.023Z,14.40
2018-06-11T00:39:34.712Z,13.73
2018-06-11T00:42:04.902Z,16.83
2018-06-11T00:44:34.666Z,14.43
2018-06-11T00:47:04.348Z,12.47
2018-06-11T00:49:34.106Z,14.37
2018-06-11T00:52:03.786Z,13.97
2018-06-11T00:54:33.579Z,16.80
2018-06-11T00:57:03.384Z,12.97
2018-06-11T00:59:33.168Z,16.70
2018-06-11T01:02:02.995Z,14.27
2018-06-11T01:04:32.673Z,15.00
2018-06-11T01:07:02.417Z,12.80
2018-06-11T01:09:32.228Z,12.40
2018-06-11T01:12:02.173Z,14.43
2018-06-11T01:14:31.954Z,14.40
2018-06-11T01:17:01.650Z,13.80
2018-06-11T01:19:31.439Z,16.53
2018-06-11T01:22:01.739Z,13.70
2018-06-11T01:24:31.546Z,13.07
2018-06-11T01:27:00.963Z,14.20
2018-06-11T01:29:30.678Z,18.73
2018-06-11T01:32:00.487Z,16.50
2018-06-11T01:34:30.158Z,13.50
2018-06-11T01:36:59.968Z,17.90
2018-06-11T01:39:29.671Z,15.67
2018-06-11T01:41:59.498Z,16.47
2018-06-11T01:44:29.315Z,17.63
2018-06-11T01:46:59.176Z,20.67
2018-06-11T01:49:28.931Z,16.43
2018-06-11T01:51:58.624Z,15.73
2018-06-11T01:54:28.487Z,17.43
2018-06-11T01:56:58.281Z,14.37
2018-06-11T01:59:27.998Z,15.93
2018-06-11T02:01:57.828Z,19.33
2018-06-11T02:04:27.785Z,15.43
2018-06-11T02:06:57.511Z,18.30
2018-06-11T02:09:27.431Z,17.57
2018-06-11T02:11:57.312Z,14.60
2018-06-11T02:14:27.013Z,22.30
2018-06-11T02:16:56.783Z,20.10
2018-06-11T02:19:26.457Z,20.30
2018-06-11T02:21:56.215Z,16.83
2018-06-11T02:24:25.907Z,21.47
2018-06-11T02:26:55.622Z,22.67
2018-06-11T02:29:25.306Z,21.90
2018-06-11T02:31:55.043Z,22.20
2018-06-11T02:34:24.803Z,26.77
2018-06-11T02:36:54.574Z,21.60
2018-06-11T02:39:24.295Z,24.43
2018-06-11T02:41:54.206Z,26.13
2018-06-11T02:44:23.996Z,27.17
2018-06-11T02:46:53.942Z,25.77
2018-06-11T02:49:23.664Z,26.97
2018-06-11T02:51:53.209Z,22.93
2018-06-11T02:54:22.679Z,27.03
2018-06-11T02:56:52.549Z,25.20
2018-06-11T02:59:22.418Z,20.70
2018-06-11T03:01:52.142Z,21.83
2018-06-11T03:04:21.687Z,22.97
2018-06-11T03:06:51.483Z,22.20
2018-06-11T03:09:21.404Z,22.53
2018-06-11T03:11:51.290Z,22.90
2018-06-11T03:14:21.114Z,24.67
2018-06-11T03:16:50.997Z,22.00
2018-06-11T03:19:20.962Z,21.67
2018-06-11T03:21:51.038Z,26.73
2018-06-11T03:24:20.766Z,23.13
2018-06-11T03:26:50.212Z,23.00
2018-06-11T03:29:19.973Z,21.90
2018-06-11T03:31:49.660Z,23.03
2018-06-11T03:34:19.570Z,22.03
2018-06-11T03:36:49.368Z,26.20
2018-06-11T03:39:19.075Z,25.37
2018-06-11T03:41:49.062Z,23.13
2018-06-11T03:44:18.801Z,25.70
2018-06-11T03:46:48.493Z,24.03
2018-06-11T03:49:18.188Z,25.70
2018-06-11T03:51:47.884Z,27.80
2018-06-11T03:54:17.841Z,25.20
2018-06-11T03:56:47.525Z,25.57
2018-06-11T03:59:17.471Z,25.60
2018-06-11T04:01:47.421Z,28.07
2018-06-11T04:04:17.467Z,22.73
2018-06-11T04:06:47.398Z,26.73
2018-06-11T04:09:17.094Z,22.83
2018-06-11T04:11:46.790Z,21.60
2018-06-11T04:14:16.589Z,21.93
2018-06-11T04:16:46.275Z,21.17
2018-06-11T04:19:16.011Z,20.50
2018-06-11T04:21:45.719Z,18.17
2018-06-11T04:24:15.564Z,17.93
2018-06-11T04:26:45.277Z,18.53
2018-06-11T04:29:15.007Z,18.03
2018-06-11T04:31:44.751Z,18.80
2018-06-11T04:34:14.188Z,20.90
2018-06-11T04:36:44.580Z,18.37
2018-06-11T04:39:14.858Z,19.10
2018-06-11T04:41:45.212Z,19.20
2018-06-11T04:44:15.551Z,18.45
2018-06-11T04:46:45.959Z,19.70
2018-06-11T04:49:16.430Z,20.30
2018-06-11T04:51:47.336Z,24.15
2018-06-11T04:54:17.737Z,21.27
2018-06-11T04:56:48.097Z,23.38
2018-06-11T04:59:18.503Z,24.70
2018-06-11T05:01:48.187Z,23.77
2018-06-11T05:04:18.059Z,24.00
2018-06-11T05:06:48.380Z,22.37
2018-06-11T05:09:18.187Z,25.87
2018-06-11T05:11:47.971Z,26.20
2018-06-11T05:14:17.726Z,25.57
2018-06-11T05:16:47.672Z,25.37
2018-06-11T05:19:17.479Z,25.00
2018-06-11T05:21:47.298Z,25.37
2018-06-11T05:24:17.159Z,25.23
2018-06-11T05:26:46.994Z,25.33
2018-06-11T05:29:17.378Z,25.68
2018-06-11T05:31:47.662Z,24.98
2018-06-11T05:34:17.366Z,27.07
2018-06-11T05:36:47.251Z,25.07
2018-06-11T05:39:17.099Z,27.20
2018-06-11T05:41:46.876Z,25.37
2018-06-11T05:44:17.348Z,24.63
2018-06-11T05:46:48.596Z,26.37
2018-06-11T05:49:18.999Z,26.52
2018-06-11T05:51:48.773Z,27.83
2018-06-11T05:54:18.714Z,25.47
2018-06-11T05:56:48.523Z,26.17
2018-06-11T05:59:18.402Z,27.00
2018-06-11T06:01:48.151Z,30.27
2018-06-11T06:04:17.961Z,28.47
2018-06-11T06:06:48.006Z,32.40
2018-06-11T06:09:17.714Z,27.87
2018-06-11T06:11:47.511Z,32.60
2018-06-11T06:14:17.316Z,30.87
2018-06-11T06:16:47.339Z,33.60
2018-06-11T06:19:17.098Z,37.20
2018-06-11T06:21:46.926Z,36.20
2018-06-11T06:24:16.736Z,31.47
2018-06-11T06:26:46.679Z,40.03
2018-06-11T06:29:16.502Z,32.87
2018-06-11T06:31:46.326Z,33.33
2018-06-11T06:34:16.115Z,38.27
2018-06-11T06:36:46.235Z,35.50
2018-06-11T06:39:15.974Z,37.50
2018-06-11T06:41:46.201Z,35.53
2018-06-11T06:44:16.208Z,38.13
2018-06-11T06:46:45.985Z,33.63
2018-06-11T06:49:16.367Z,36.70
2018-06-11T06:51:46.079Z,36.47
2018-06-11T06:54:16.136Z,35.23
2018-06-11T06:56:45.615Z,35.33
2018-06-11T06:59:15.941Z,36.73
2018-06-11T07:01:46.352Z,35.20
2018-06-11T07:04:16.735Z,32.93
2018-06-11T07:06:46.870Z,33.35
2018-06-11T07:09:17.666Z,34.75
2018-06-11T07:11:47.954Z,35.43
2018-06-11T07:14:18.323Z,32.65
2018-06-11T07:16:48.689Z,30.32
2018-06-11T07:19:20.935Z,32.70
2018-06-11T07:21:51.387Z,31.13
2018-06-11T07:24:21.869Z,27.82
2018-06-11T07:26:52.138Z,29.95
2018-06-11T07:29:22.434Z,28.25
2018-06-11T07:31:52.822Z,27.37
2018-06-11T07:34:23.206Z,25.88
2018-06-11T07:36:53.476Z,26.15
2018-06-11T07:39:23.958Z,24.67
2018-06-11T07:41:54.285Z,22.60
2018-06-11T07:44:24.588Z,23.60
2018-06-11T07:46:55.037Z,22.80
2018-06-11T07:49:25.362Z,22.22
2018-06-11T07:51:55.708Z,23.55
2018-06-11T07:54:26.007Z,22.45
2018-06-11T07:56:56.573Z,23.00
2018-06-11T07:59:26.941Z,23.90
2018-06-11T08:01:56.673Z,25.80
2018-06-11T08:04:27.019Z,22.95
2018-06-11T08:06:57.442Z,20.90
2018-06-11T08:09:27.796Z,21.65
2018-06-11T08:11:58.106Z,21.40
2018-06-11T08:14:28.433Z,19.98
2018-06-11T08:16:58.778Z,22.32
2018-06-11T08:19:29.872Z,22.45
2018-06-11T08:22:00.206Z,22.67
2018-06-11T08:24:30.691Z,22.62
2018-06-11T08:27:01.056Z,22.65
2018-06-11T08:29:31.243Z,23.65
2018-06-11T08:32:01.631Z,21.23
2018-06-11T08:34:31.707Z,25.27
2018-06-11T08:37:02.058Z,21.50
2018-06-11T08:39:32.126Z,19.12
2018-06-11T08:42:02.538Z,18.35
2018-06-11T08:44:32.978Z,15.93
2018-06-11T08:47:03.670Z,15.93
2018-06-11T08:49:33.891Z,14.93
2018-06-11T08:52:04.200Z,15.18
2018-06-11T08:54:34.326Z,15.45
2018-06-11T08:57:05.116Z,16.00
2018-06-11T08:59:36.495Z,16.27
2018-06-11T09:02:06.815Z,16.07
2018-06-11T09:04:37.169Z,16.67
2018-06-11T09:07:07.692Z,15.83
2018-06-11T09:09:38.217Z,16.60
2018-06-11T09:12:08.504Z,15.32
2018-06-11T09:14:39.210Z,15.23
2018-06-11T09:17:09.577Z,16.50
2018-06-11T09:19:39.930Z,15.08
2018-06-11T09:22:10.394Z,16.25
2018-06-11T09:24:40.686Z,17.00
2018-06-11T09:27:11.055Z,16.70
2018-06-11T09:29:41.347Z,17.27
2018-06-11T09:32:11.774Z,19.27
2018-06-11T09:34:42.337Z,18.62
2018-06-11T09:37:12.921Z,17.67
2018-06-11T09:39:43.499Z,18.48
2018-06-11T09:42:13.905Z,17.95
2018-06-11T09:44:44.399Z,17.98
2018-06-11T09:47:14.744Z,16.73
2018-06-11T09:49:45.138Z,15.58
2018-06-11T09:52:15.179Z,14.85
2018-06-11T09:54:45.490Z,14.80
2018-06-11T09:57:15.522Z,15.55
2018-06-11T09:59:45.821Z,14.58
2018-06-11T10:02:16.961Z,14.78
2018-06-11T10:04:47.256Z,13.90
2018-06-11T10:07:17.603Z,13.45
2018-06-11T10:09:47.959Z,13.13
2018-06-11T10:12:18.413Z,13.88
2018-06-11T10:14:48.916Z,13.78
2018-06-11T10:17:19.252Z,13.62
2018-06-11T10:19:49.560Z,13.62
2018-06-11T10:22:19.955Z,13.22
2018-06-11T10:24:50.270Z,13.43
2018-06-11T10:27:20.820Z,14.18
2018-06-11T10:29:51.172Z,14.10
2018-06-11T10:35:03.471Z,14.40
2018-06-11T10:37:34.520Z,13.83
2018-06-11T10:40:05.287Z,13.38
2018-06-11T10:42:35.685Z,13.32
2018-06-11T10:45:06.134Z,13.60
2018-06-11T10:47:36.452Z,13.43
2018-06-11T10:50:07.198Z,12.78
2018-06-11T10:52:37.713Z,13.48
2018-06-11T10:55:08.179Z,12.63
2018-06-11T10:57:38.486Z,12.23
2018-06-11T11:00:09.058Z,12.37
2018-06-11T11:02:39.381Z,11.57
2018-06-11T11:05:09.769Z,12.98
2018-06-11T11:07:40.232Z,11.65
2018-06-11T11:10:10.368Z,11.50
2018-06-11T11:12:40.883Z,11.28
2018-06-11T11:15:11.419Z,10.40
2018-06-11T11:17:41.807Z,10.90
2018-06-11T11:20:12.303Z,10.75
2018-06-11T11:22:42.671Z,11.05
2018-06-11T11:25:13.264Z,11.22
2018-06-11T11:27:43.635Z,10.68
2018-06-11T11:30:14.000Z,10.80
2018-06-11T11:32:44.373Z,10.13
2018-06-11T11:35:14.685Z,9.60
2018-06-11T11:37:45.092Z,9.73
2018-06-11T11:40:15.474Z,10.35
2018-06-11T11:42:46.038Z,9.53
2018-06-11T11:45:16.343Z,9.50
2018-06-11T11:47:46.641Z,9.48
2018-06-11T11:50:17.115Z,8.38
2018-06-11T11:52:47.475Z,9.10
2018-06-11T11:55:17.749Z,8.88
2018-06-11T11:57:48.713Z,8.50
2018-06-11T12:00:19.014Z,8.10
2018-06-11T12:02:49.386Z,7.75
2018-06-11T12:05:19.644Z,7.67
2018-06-11T12:07:50.110Z,7.97
2018-06-11T12:10:20.534Z,7.62
2018-06-11T12:12:51.401Z,8.13
2018-06-11T12:15:21.698Z,8.63
2018-06-11T12:17:52.206Z,7.85
2018-06-11T12:20:22.262Z,7.55
2018-06-11T12:22:52.659Z,8.13
2018-06-11T12:25:23.813Z,7.87
2018-06-11T12:27:54.184Z,8.28
2018-06-11T12:30:24.621Z,8.40
2018-06-11T12:32:54.962Z,7.37
2018-06-11T12:35:25.402Z,8.08
2018-06-11T12:37:55.901Z,8.35
2018-06-11T12:40:26.291Z,8.25
2018-06-11T12:42:56.647Z,8.60
2018-06-11T12:45:27.046Z,8.35
2018-06-11T12:47:57.411Z,8.50
2018-06-11T12:50:27.918Z,7.72
2018-06-11T12:52:58.279Z,8.70
2018-06-11T12:55:28.618Z,10.18
2018-06-11T12:57:58.951Z,10.15
2018-06-11T13:00:30.025Z,10.45
2018-06-11T13:03:00.521Z,8.98
2018-06-11T13:05:30.844Z,9.15
2018-06-11T13:08:01.341Z,7.90
2018-06-11T13:10:31.718Z,9.15
2018-06-11T13:13:02.603Z,9.55
2018-06-11T13:15:32.977Z,9.03
2018-06-11T13:18:03.357Z,10.03
2018-06-11T13:20:33.614Z,9.30
2018-06-11T13:23:03.930Z,9.38
2018-06-11T13:25:34.439Z,8.45
2018-06-11T13:28:05.189Z,8.45
2018-06-11T13:30:35.569Z,8.70
2018-06-11T13:33:05.979Z,8.70
2018-06-11T13:35:36.346Z,8.85
2018-06-11T13:38:06.853Z,9.00
2018-06-11T13:40:37.937Z,9.00
2018-06-11T13:43:08.213Z,9.00
2018-06-11T13:45:38.278Z,8.18
2018-06-11T13:48:08.566Z,8.13
2018-06-11T13:50:39.218Z,7.60
2018-06-11T13:53:09.493Z,7.30
2018-06-11T13:55:40.099Z,7.42
2018-06-11T13:58:10.388Z,8.70
2018-06-11T14:00:40.696Z,8.68
2018-06-11T14:03:11.195Z,8.48
2018-06-11T14:05:41.516Z,8.30
2018-06-11T14:08:11.665Z,7.28
2018-06-11T14:10:42.059Z,9.90
2018-06-11T14:13:12.475Z,7.65
2018-06-11T14:15:42.746Z,8.05
2018-06-11T14:18:13.142Z,7.53
2018-06-11T14:20:43.390Z,7.95
2018-06-11T14:23:13.709Z,8.50
2018-06-11T14:25:44.070Z,7.42
2018-06-11T14:28:14.371Z,7.97
2018-06-11T14:30:44.650Z,7.72
2018-06-11T14:33:14.944Z,7.30
2018-06-11T14:35:45.201Z,7.58
2018-06-11T14:38:15.497Z,7.62
2018-06-11T14:40:46.386Z,7.47
2018-06-11T14:43:16.699Z,8.10
2018-06-11T14:45:47.026Z,8.05
2018-06-11T14:48:17.414Z,7.90
2018-06-11T14:50:47.890Z,8.95
2018-06-11T14:53:18.188Z,8.28
2018-06-11T14:55:48.547Z,7.65
2018-06-11T14:58:18.872Z,8.80
2018-06-11T15:00:49.436Z,8.25
2018-06-11T15:03:19.789Z,7.85
2018-06-11T15:05:50.116Z,6.90
2018-06-11T15:08:20.624Z,7.40
2018-06-11T15:10:51.047Z,8.03
2018-06-11T15:13:21.374Z,7.45
2018-06-11T15:15:51.750Z,8.55
2018-06-11T15:18:22.227Z,10.40
2018-06-11T15:20:52.474Z,10.93
2018-06-11T15:23:22.831Z,8.48
2018-06-11T15:25:53.135Z,8.40
2018-06-11T15:28:23.471Z,8.08
2018-06-11T15:30:53.815Z,8.35
2018-06-11T15:33:24.164Z,8.80
2018-06-11T15:35:54.608Z,7.65
2018-06-11T15:38:24.932Z,8.03
2018-06-11T15:40:55.248Z,8.03
2018-06-11T15:43:25.658Z,8.68
2018-06-11T15:45:56.262Z,7.58
2018-06-11T15:48:26.554Z,7.80
2018-06-11T15:50:56.917Z,11.88
2018-06-11T15:53:27.243Z,9.85
2018-06-11T15:55:57.573Z,7.90
2018-06-11T15:58:27.922Z,8.40
2018-06-11T16:00:58.362Z,8.20
2018-06-11T16:03:28.667Z,8.53
2018-06-11T16:05:59.125Z,9.08
2018-06-11T16:08:29.646Z,8.83
2018-06-11T16:10:59.955Z,9.00
2018-06-11T16:13:30.406Z,8.75
2018-06-11T16:16:00.896Z,8.25
2018-06-11T16:18:31.210Z,7.85
2018-06-11T16:21:02.418Z,8.30
2018-06-11T16:23:32.882Z,7.75
2018-06-11T16:26:03.211Z,8.08
2018-06-11T16:28:33.501Z,8.53
2018-06-11T16:31:03.880Z,8.30
2018-06-11T16:33:34.404Z,8.23
2018-06-11T16:36:04.827Z,8.45
2018-06-11T16:38:35.865Z,7.55
2018-06-11T16:41:07.599Z,8.95
2018-06-11T16:43:37.948Z,8.60
2018-06-11T16:46:08.370Z,9.10
2018-06-11T16:48:38.193Z,9.90
2018-06-11T16:51:07.981Z,8.57
2018-06-11T16:53:38.376Z,9.45
2018-06-11T16:56:08.742Z,8.65
2018-06-11T16:58:39.077Z,8.98
2018-06-11T17:01:09.534Z,9.50
2018-06-11T17:03:39.851Z,9.03
2018-06-11T17:06:10.192Z,8.73
2018-06-11T17:08:40.169Z,9.67
2018-06-11T17:11:10.474Z,9.05
2018-06-11T17:13:40.850Z,8.40
2018-06-11T17:16:10.645Z,9.27
2018-06-11T17:18:41.019Z,8.88
2018-06-11T17:21:10.773Z,8.77
2018-06-11T17:23:40.562Z,9.15
2018-06-11T17:26:10.558Z,9.03
2018-06-11T17:28:40.937Z,9.83
2018-06-11T17:31:10.698Z,9.20
2018-06-11T17:33:40.737Z,9.10
2018-06-11T17:36:11.154Z,9.33
2018-06-11T17:38:41.566Z,9.33
2018-06-11T17:41:11.866Z,9.38
2018-06-11T17:43:42.287Z,9.03
2018-06-11T17:46:12.644Z,9.98
2018-06-11T17:48:42.970Z,9.38
2018-06-11T17:51:13.320Z,9.25
2018-06-11T17:53:43.779Z,10.05
2018-06-11T17:56:14.154Z,9.68
2018-06-11T17:58:44.538Z,10.08
2018-06-11T18:01:14.833Z,9.50
2018-06-11T18:03:45.187Z,9.78
2018-06-11T18:06:15.667Z,10.28
2018-06-11T18:08:46.364Z,9.80
2018-06-11T18:11:16.776Z,9.90
2018-06-11T18:13:47.229Z,9.68
2018-06-11T18:16:17.659Z,10.93
2018-06-11T18:18:48.217Z,11.55
2018-06-11T18:21:19.701Z,9.55
2018-06-11T18:23:50.540Z,10.20
2018-06-11T18:26:20.861Z,9.50
2018-06-11T18:28:51.246Z,10.68
2018-06-11T18:31:21.639Z,9.65
2018-06-11T18:33:52.111Z,9.78
2018-06-11T18:36:22.528Z,9.93
2018-06-11T18:38:52.914Z,9.73
2018-06-11T18:41:23.670Z,9.65
2018-06-11T18:43:54.893Z,10.82
2018-06-11T18:46:25.233Z,10.20
2018-06-11T18:48:54.983Z,9.75
2018-06-11T18:51:24.732Z,11.40
2018-06-11T18:53:55.323Z,10.95
2018-06-11T18:56:25.227Z,10.67
2018-06-11T18:58:55.643Z,11.88
2018-06-11T19:01:25.412Z,110.97
2018-06-11T19:03:55.769Z,57.05
2018-06-11T19:06:26.102Z,38.05
2018-06-11T19:08:56.701Z,15.93
2018-06-11T19:11:26.513Z,16.53
2018-06-11T19:13:56.466Z,14.33
2018-06-11T19:16:26.741Z,18.27
2018-06-11T19:18:57.190Z,29.82
2018-06-11T19:21:27.400Z,49.33
2018-06-11T19:23:57.888Z,52.53
2018-06-11T19:26:29.301Z,23.18
2018-06-11T19:28:59.213Z,17.03
2018-06-11T19:31:29.192Z,16.27
2018-06-11T19:33:58.993Z,24.23
2018-06-11T19:36:28.781Z,27.53
2018-06-11T19:38:58.572Z,23.57
2018-06-11T19:41:28.348Z,15.50
2018-06-11T19:43:59.039Z,18.23
2018-06-11T19:46:28.836Z,19.32
2018-06-11T19:48:58.571Z,24.00
2018-06-11T19:51:28.315Z,15.90
2018-06-11T19:53:58.031Z,17.17
2018-06-11T19:56:27.881Z,16.23
2018-06-11T19:58:57.763Z,16.97
2018-06-11T20:01:27.721Z,20.03
2018-06-11T20:03:57.521Z,16.60
2018-06-11T20:06:27.320Z,18.60
2018-06-11T20:08:57.334Z,15.30
2018-06-11T20:11:26.816Z,16.73
2018-06-11T20:13:56.635Z,16.40
2018-06-11T20:16:26.415Z,16.27
2018-06-11T20:18:56.234Z,17.37
2018-06-11T20:21:25.740Z,18.50
2018-06-11T20:23:55.476Z,17.73
2018-06-11T20:26:25.286Z,17.87
2018-06-11T20:28:55.071Z,17.67
2018-06-11T20:31:24.794Z,18.33
2018-06-11T20:33:54.524Z,17.00
2018-06-11T20:36:24.245Z,17.43
2018-06-11T20:38:54.078Z,17.53
2018-06-11T20:41:23.846Z,19.03
2018-06-11T20:43:53.688Z,19.10
2018-06-11T20:46:23.439Z,17.17
2018-06-11T20:48:53.137Z,17.63
2018-06-11T20:51:22.944Z,16.63
2018-06-11T20:53:52.721Z,19.07
2018-06-11T20:56:22.542Z,18.00
2018-06-11T20:58:52.287Z,18.90
2018-06-11T21:01:22.056Z,21.57
2018-06-11T21:03:51.807Z,20.27
2018-06-11T21:06:21.515Z,19.83
2018-06-11T21:08:51.090Z,20.63
2018-06-11T21:11:20.807Z,21.40
2018-06-11T21:13:50.507Z,24.67
2018-06-11T21:16:20.703Z,20.70
2018-06-11T21:18:50.562Z,21.23
2018-06-11T21:21:20.265Z,21.93
2018-06-11T21:23:50.028Z,23.63
2018-06-11T21:26:19.791Z,21.30
2018-06-11T21:28:49.633Z,24.17
2018-06-11T21:31:19.566Z,25.67
2018-06-11T21:33:49.172Z,22.00
2018-06-11T21:36:18.981Z,23.40
2018-06-11T21:38:48.706Z,21.17
2018-06-11T21:41:20.270Z,21.93
2018-06-11T21:43:50.185Z,21.30
2018-06-11T21:46:20.988Z,21.07
2018-06-11T21:48:51.640Z,20.20
2018-06-11T21:51:21.681Z,19.90
2018-06-11T21:53:51.531Z,19.33
2018-06-11T21:56:21.299Z,20.63
2018-06-11T21:58:51.151Z,19.03
2018-06-11T22:01:20.928Z,19.83
2018-06-11T22:03:50.595Z,18.60
2018-06-11T22:06:21.253Z,19.93
2018-06-11T22:08:51.016Z,20.17
2018-06-11T22:11:20.853Z,19.03
2018-06-11T22:13:50.615Z,20.33
2018-06-11T22:16:20.306Z,19.70
2018-06-11T22:18:50.082Z,18.90
2018-06-11T22:21:19.885Z,20.83
2018-06-11T22:23:49.346Z,19.43
2018-06-11T22:26:19.078Z,20.03
2018-06-11T22:28:48.813Z,21.73
2018-06-11T22:31:18.642Z,23.13
2018-06-11T22:33:48.376Z,21.77
2018-06-11T22:36:18.225Z,21.97
2018-06-11T22:38:47.987Z,22.03
2018-06-11T22:41:17.674Z,21.80
2018-06-11T22:43:47.426Z,24.47
2018-06-11T22:46:17.110Z,24.30
2018-06-11T22:48:46.853Z,26.53
2018-06-11T22:51:17.404Z,27.43
2018-06-11T22:53:47.251Z,27.60
2018-06-11T22:56:16.703Z,28.47
2018-06-11T22:58:46.444Z,28.73
2018-06-11T23:01:16.250Z,28.87
2018-06-11T23:03:45.997Z,29.87
2018-06-11T23:06:15.827Z,31.17
2018-06-11T23:08:45.596Z,31.97
2018-06-11T23:11:15.446Z,31.13
2018-06-11T23:13:45.224Z,34.47
2018-06-11T23:16:15.026Z,34.03
2018-06-11T23:18:44.903Z,32.63
2018-06-11T23:21:14.634Z,31.20
2018-06-11T23:23:44.352Z,30.10
2018-06-11T23:26:14.196Z,30.77
2018-06-11T23:28:44.386Z,29.10
2018-06-11T23:31:14.127Z,31.20
2018-06-11T23:33:44.000Z,29.87
2018-06-11T23:36:13.687Z,27.80
2018-06-11T23:38:43.377Z,27.93
2018-06-11T23:41:13.239Z,26.90
2018-06-11T23:43:42.990Z,26.67
2018-06-11T23:46:12.728Z,27.17
2018-06-11T23:48:42.858Z,28.70
2018-06-11T23:51:12.577Z,27.10
2018-06-11T23:53:42.365Z,28.27
2018-06-11T23:56:12.184Z,27.93
2018-06-11T23:58:42.040Z,26.97
